createdAt,value
2018-06-13T00:00:46.142Z,17.20
2018-06-13T00:01:46.216Z,17.20
2018-06-13T00:02:46.246Z,17.22
2018-06-13T00:03:46.292Z,17.14
2018-06-13T00:04:46.343Z,17.22
2018-06-13T00:05:46.393Z,17.20
2018-06-13T00:06:46.481Z,17.28
2018-06-13T00:07:46.491Z,17.18
2018-06-13T00:08:46.541Z,17.15
2018-06-13T00:09:46.597Z,17.14
2018-06-13T00:10:46.640Z,17.15
2018-06-13T00:11:46.734Z,17.11
2018-06-13T00:12:46.742Z,17.18
2018-06-13T00:13:46.789Z,17.15
2018-06-13T00:14:46.841Z,17.14
2018-06-13T00:15:46.890Z,17.14
2018-06-13T00:16:46.985Z,17.15
2018-06-13T00:17:46.998Z,17.07
2018-06-13T00:18:47.042Z,17.00
2018-06-13T00:19:47.091Z,17.04
2018-06-13T00:20:47.141Z,17.06
2018-06-13T00:21:47.215Z,17.00
2018-06-13T00:22:47.239Z,17.06
2018-06-13T00:23:47.314Z,17.07
2018-06-13T00:24:47.341Z,17.06
2018-06-13T00:25:47.390Z,17.08
2018-06-13T00:26:47.456Z,17.14
2018-06-13T00:27:47.514Z,17.15
2018-06-13T00:28:47.566Z,17.10
2018-06-13T00:29:47.593Z,17.13
2018-06-13T00:30:47.642Z,17.17
2018-06-13T00:31:47.689Z,17.13
2018-06-13T00:32:47.750Z,17.18
2018-06-13T00:33:47.811Z,17.14
2018-06-13T00:34:47.840Z,17.13
2018-06-13T00:35:47.891Z,17.20
2018-06-13T00:36:47.942Z,17.14
2018-06-13T00:37:47.990Z,17.14
2018-06-13T00:38:48.067Z,17.06
2018-06-13T00:39:48.089Z,17.13
2018-06-13T00:40:48.140Z,17.04
2018-06-13T00:41:48.191Z,17.07
2018-06-13T00:42:48.246Z,17.03
2018-06-13T00:43:48.312Z,16.99
2018-06-13T00:44:48.341Z,17.07
2018-06-13T00:45:48.389Z,17.06
2018-06-13T00:46:48.446Z,17.00
2018-06-13T00:47:48.488Z,17.10
2018-06-13T00:48:48.575Z,17.06
2018-06-13T00:49:48.593Z,17.06
2018-06-13T00:50:48.639Z,17.08
2018-06-13T00:51:48.691Z,17.04
2018-06-13T00:52:48.737Z,17.10
2018-06-13T00:53:48.813Z,17.08
2018-06-13T00:54:48.862Z,17.11
2018-06-13T00:55:48.888Z,17.15
2018-06-13T00:56:48.938Z,17.13
2018-06-13T00:57:48.986Z,17.14
2018-06-13T00:58:49.040Z,17.13
2018-06-13T00:59:49.110Z,17.11
2018-06-13T01:00:49.137Z,17.13
2018-06-13T01:01:49.187Z,17.15
2018-06-13T01:02:49.236Z,17.14
2018-06-13T01:03:49.289Z,17.08
2018-06-13T01:04:49.364Z,17.13
2018-06-13T01:05:49.413Z,17.14
2018-06-13T01:06:49.437Z,17.13
2018-06-13T01:07:49.486Z,17.11
2018-06-13T01:08:49.538Z,17.10
2018-06-13T01:09:49.610Z,17.07
2018-06-13T01:10:49.681Z,17.10
2018-06-13T01:11:49.687Z,17.06
2018-06-13T01:12:49.737Z,17.08
2018-06-13T01:13:49.786Z,17.13
2018-06-13T01:14:49.838Z,17.06
2018-06-13T01:15:49.910Z,17.13
2018-06-13T01:16:49.935Z,17.08
2018-06-13T01:17:49.985Z,17.07
2018-06-13T01:18:50.035Z,17.07
2018-06-13T01:19:50.089Z,17.11
2018-06-13T01:20:50.160Z,16.98
2018-06-13T01:21:50.209Z,16.96
2018-06-13T01:22:50.236Z,17.04
2018-06-13T01:23:50.284Z,16.99
2018-06-13T01:24:50.334Z,17.07
2018-06-13T01:25:50.411Z,16.99
2018-06-13T01:26:50.458Z,17.04
2018-06-13T01:27:50.489Z,17.04
2018-06-13T01:28:50.536Z,17.00
2018-06-13T01:29:50.586Z,16.89
2018-06-13T01:30:50.634Z,16.90
2018-06-13T01:31:50.760Z,16.88
2018-06-13T01:32:50.734Z,16.92
2018-06-13T01:33:50.782Z,16.89
2018-06-13T01:34:50.833Z,16.88
2018-06-13T01:35:50.883Z,16.88
2018-06-13T01:36:50.956Z,16.88
2018-06-13T01:37:50.983Z,16.80
2018-06-13T01:38:51.036Z,16.75
2018-06-13T01:39:51.082Z,16.85
2018-06-13T01:40:51.133Z,16.80
2018-06-13T01:41:51.204Z,16.78
2018-06-13T01:42:51.283Z,16.78
2018-06-13T01:43:51.280Z,16.80
2018-06-13T01:44:51.331Z,16.74
2018-06-13T01:45:51.390Z,16.83
2018-06-13T01:46:51.437Z,16.71
2018-06-13T01:47:51.506Z,16.78
2018-06-13T01:48:51.530Z,16.75
2018-06-13T01:49:51.579Z,16.68
2018-06-13T01:50:51.637Z,16.73
2018-06-13T01:51:51.678Z,16.77
2018-06-13T01:52:51.763Z,16.70
2018-06-13T01:53:51.781Z,16.80
2018-06-13T01:54:51.836Z,16.83
2018-06-13T01:55:51.879Z,16.75
2018-06-13T01:56:51.927Z,16.68
2018-06-13T01:57:52.014Z,16.77
2018-06-13T01:58:52.030Z,16.81
2018-06-13T01:59:52.078Z,16.63
2018-06-13T02:00:52.128Z,16.68
2018-06-13T02:01:52.176Z,16.71
2018-06-13T02:02:52.262Z,16.70
2018-06-13T02:03:52.276Z,16.80
2018-06-13T02:04:52.327Z,16.73
2018-06-13T02:05:52.377Z,16.68
2018-06-13T02:06:52.425Z,16.75
2018-06-13T02:07:52.507Z,16.67
2018-06-13T02:08:52.524Z,16.74
2018-06-13T02:09:52.572Z,16.74
2018-06-13T02:10:52.627Z,16.68
2018-06-13T02:11:52.675Z,16.70
2018-06-13T02:12:52.761Z,16.65
2018-06-13T02:13:52.771Z,16.67
2018-06-13T02:14:52.821Z,16.65
2018-06-13T02:15:52.872Z,16.58
2018-06-13T02:16:52.923Z,16.60
2018-06-13T02:17:53.004Z,16.58
2018-06-13T02:18:53.019Z,16.62
2018-06-13T02:19:53.071Z,16.68
2018-06-13T02:20:53.121Z,16.71
2018-06-13T02:21:53.235Z,16.74
2018-06-13T02:22:53.247Z,16.68
2018-06-13T02:23:53.269Z,16.68
2018-06-13T02:24:53.345Z,16.70
2018-06-13T02:25:53.368Z,16.68
2018-06-13T02:26:53.427Z,16.67
2018-06-13T02:27:53.470Z,16.60
2018-06-13T02:28:53.527Z,16.63
2018-06-13T02:29:53.592Z,16.60
2018-06-13T02:30:53.617Z,16.62
2018-06-13T02:31:53.668Z,16.73
2018-06-13T02:32:53.717Z,16.68
2018-06-13T02:33:53.767Z,16.73
2018-06-13T02:34:53.850Z,16.63
2018-06-13T02:35:53.874Z,16.67
2018-06-13T02:36:53.915Z,16.62
2018-06-13T02:37:53.966Z,16.65
2018-06-13T02:38:54.015Z,16.60
2018-06-13T02:39:54.089Z,16.55
2018-06-13T02:40:54.144Z,16.68
2018-06-13T02:41:54.165Z,16.58
2018-06-13T02:42:54.214Z,16.52
2018-06-13T02:43:54.272Z,16.58
2018-06-13T02:44:54.318Z,16.59
2018-06-13T02:45:54.387Z,16.55
2018-06-13T02:46:54.413Z,16.58
2018-06-13T02:47:54.472Z,16.55
2018-06-13T02:48:54.511Z,16.52
2018-06-13T02:49:54.564Z,16.59
2018-06-13T02:50:54.635Z,16.58
2018-06-13T02:51:54.661Z,16.59
2018-06-13T02:52:54.713Z,16.62
2018-06-13T02:53:54.759Z,16.62
2018-06-13T02:54:54.811Z,16.59
2018-06-13T02:55:54.898Z,16.58
2018-06-13T02:56:54.911Z,16.52
2018-06-13T02:57:54.964Z,16.56
2018-06-13T02:58:55.010Z,16.50
2018-06-13T02:59:55.059Z,16.45
2018-06-13T03:00:55.157Z,16.48
2018-06-13T03:01:55.155Z,16.40
2018-06-13T03:02:55.213Z,16.41
2018-06-13T03:03:55.258Z,16.33
2018-06-13T03:04:55.308Z,16.34
2018-06-13T03:05:55.379Z,16.26
2018-06-13T03:06:55.406Z,16.40
2018-06-13T03:07:55.455Z,16.35
2018-06-13T03:08:55.503Z,16.31
2018-06-13T03:09:55.554Z,16.25
2018-06-13T03:10:55.635Z,16.34
2018-06-13T03:11:55.656Z,16.22
2018-06-13T03:12:55.703Z,16.15
2018-06-13T03:13:55.750Z,16.12
2018-06-13T03:14:55.802Z,16.03
2018-06-13T03:15:55.877Z,16.09
2018-06-13T03:16:55.899Z,16.01
2018-06-13T03:17:55.973Z,16.03
2018-06-13T03:18:56.000Z,16.04
2018-06-13T03:19:56.050Z,15.99
2018-06-13T03:20:56.142Z,15.97
2018-06-13T03:21:56.176Z,15.99
2018-06-13T03:22:56.224Z,16.00
2018-06-13T03:23:56.247Z,15.97
2018-06-13T03:24:56.295Z,15.97
2018-06-13T03:25:56.343Z,16.03
2018-06-13T03:26:56.418Z,15.92
2018-06-13T03:27:56.443Z,15.97
2018-06-13T03:28:56.517Z,15.94
2018-06-13T03:29:56.541Z,15.96
2018-06-13T03:30:56.604Z,15.94
2018-06-13T03:31:56.641Z,15.86
2018-06-13T03:32:56.721Z,15.94
2018-06-13T03:33:56.739Z,15.94
2018-06-13T03:34:56.789Z,15.89
2018-06-13T03:35:56.838Z,15.88
2018-06-13T03:36:56.888Z,15.94
2018-06-13T03:37:56.961Z,15.86
2018-06-13T03:38:57.014Z,15.81
2018-06-13T03:39:57.035Z,15.85
2018-06-13T03:40:57.088Z,15.78
2018-06-13T03:41:57.134Z,15.93
2018-06-13T03:42:57.185Z,15.94
2018-06-13T03:43:57.257Z,15.85
2018-06-13T03:44:57.281Z,15.93
2018-06-13T03:45:57.329Z,15.89
2018-06-13T03:46:57.383Z,15.89
2018-06-13T03:47:57.431Z,15.92
2018-06-13T03:48:57.521Z,15.76
2018-06-13T03:49:57.527Z,15.81
2018-06-13T03:50:57.579Z,15.76
2018-06-13T03:51:57.625Z,15.93
2018-06-13T03:52:57.675Z,15.76
2018-06-13T03:53:57.749Z,15.82
2018-06-13T03:54:57.798Z,15.74
2018-06-13T03:55:57.823Z,15.79
2018-06-13T03:56:57.873Z,15.79
2018-06-13T03:57:57.932Z,15.84
2018-06-13T03:58:57.971Z,15.88
2018-06-13T03:59:58.043Z,15.82
2018-06-13T04:00:58.068Z,15.79
2018-06-13T04:01:58.120Z,15.79
2018-06-13T04:02:58.165Z,15.81
2018-06-13T04:03:58.218Z,15.68
2018-06-13T04:04:58.290Z,15.70
2018-06-13T04:05:58.313Z,15.68
2018-06-13T04:06:58.367Z,15.75
2018-06-13T04:07:58.415Z,15.74
2018-06-13T04:08:58.463Z,15.67
2018-06-13T04:09:58.535Z,15.63
2018-06-13T04:10:58.559Z,15.56
2018-06-13T04:11:58.610Z,15.57
2018-06-13T04:12:58.658Z,15.64
2018-06-13T04:13:58.708Z,15.57
2018-06-13T04:14:58.790Z,15.51
2018-06-13T04:15:58.805Z,15.46
2018-06-13T04:16:58.860Z,15.41
2018-06-13T04:17:59.486Z,15.48
2018-06-13T04:18:58.960Z,15.31
2018-06-13T04:19:59.026Z,15.38
2018-06-13T04:20:59.077Z,15.24
2018-06-13T04:21:59.099Z,15.27
2018-06-13T04:22:59.151Z,15.23
2018-06-13T04:23:59.199Z,15.23
2018-06-13T04:24:59.249Z,15.19
2018-06-13T04:25:59.830Z,15.21
2018-06-13T04:26:59.347Z,15.12
2018-06-13T04:27:59.397Z,15.20
2018-06-13T04:28:59.446Z,15.20
2018-06-13T04:29:59.493Z,15.20
2018-06-13T04:30:59.542Z,15.13
2018-06-13T04:31:59.614Z,15.19
2018-06-13T04:32:59.643Z,15.15
2018-06-13T04:33:59.701Z,15.15
2018-06-13T04:34:59.739Z,15.21
2018-06-13T04:35:59.790Z,15.17
2018-06-13T04:36:59.865Z,15.17
2018-06-13T04:37:59.887Z,15.23
2018-06-13T04:38:59.935Z,15.17
2018-06-13T04:39:59.986Z,15.20
2018-06-13T04:41:00.048Z,15.23
2018-06-13T04:42:00.142Z,15.23
2018-06-13T04:43:00.130Z,15.17
2018-06-13T04:44:00.180Z,15.21
2018-06-13T04:45:00.283Z,15.15
2018-06-13T04:46:00.278Z,15.08
2018-06-13T04:47:00.363Z,15.05
2018-06-13T04:48:00.375Z,15.11
2018-06-13T04:49:00.424Z,15.13
2018-06-13T04:50:00.474Z,15.12
2018-06-13T04:51:00.531Z,15.06
2018-06-13T04:52:00.598Z,15.08
2018-06-13T04:53:00.661Z,14.98
2018-06-13T04:54:00.668Z,15.01
2018-06-13T04:55:00.724Z,14.95
2018-06-13T04:56:00.768Z,14.99
2018-06-13T04:57:01.795Z,14.91
2018-06-13T04:58:00.895Z,14.90
2018-06-13T04:59:00.915Z,14.95
2018-06-13T05:00:00.962Z,14.94
2018-06-13T05:01:01.018Z,14.94
2018-06-13T05:02:01.060Z,14.88
2018-06-13T05:03:01.132Z,14.90
2018-06-13T05:04:01.180Z,14.91
2018-06-13T05:05:01.211Z,14.84
2018-06-13T05:06:01.256Z,14.93
2018-06-13T05:07:01.306Z,14.88
2018-06-13T05:08:01.355Z,14.88
2018-06-13T05:09:01.464Z,14.88
2018-06-13T05:10:01.451Z,14.90
2018-06-13T05:11:01.499Z,14.88
2018-06-13T05:12:01.548Z,14.84
2018-06-13T05:13:01.600Z,14.87
2018-06-13T05:14:01.673Z,14.87
2018-06-13T05:15:01.696Z,14.86
2018-06-13T05:16:01.749Z,14.88
2018-06-13T05:17:01.794Z,14.90
2018-06-13T05:18:01.843Z,14.81
2018-06-13T05:19:01.922Z,14.80
2018-06-13T05:20:01.939Z,14.75
2018-06-13T05:21:01.989Z,14.84
2018-06-13T05:22:02.041Z,14.91
2018-06-13T05:23:02.089Z,14.86
2018-06-13T05:24:02.177Z,14.81
2018-06-13T05:25:02.188Z,14.80
2018-06-13T05:26:02.236Z,14.81
2018-06-13T05:27:02.292Z,14.78
2018-06-13T05:28:02.333Z,14.75
2018-06-13T05:29:02.415Z,14.67
2018-06-13T05:30:02.430Z,14.75
2018-06-13T05:31:02.481Z,14.74
2018-06-13T05:32:02.526Z,14.78
2018-06-13T05:33:02.577Z,14.69
2018-06-13T05:34:02.650Z,14.74
2018-06-13T05:35:02.678Z,14.67
2018-06-13T05:36:02.726Z,14.69
2018-06-13T05:37:02.769Z,14.65
2018-06-13T05:38:02.819Z,14.57
2018-06-13T05:39:02.910Z,14.56
2018-06-13T05:40:02.931Z,14.57
2018-06-13T05:41:02.965Z,14.56
2018-06-13T05:42:03.014Z,14.60
2018-06-13T05:43:03.063Z,14.61
2018-06-13T05:44:03.133Z,14.68
2018-06-13T05:45:03.160Z,14.57
2018-06-13T05:46:03.232Z,14.61
2018-06-13T05:47:03.258Z,14.64
2018-06-13T05:48:03.305Z,14.57
2018-06-13T05:49:03.354Z,14.61
2018-06-13T05:50:03.429Z,14.60
2018-06-13T05:51:03.477Z,14.56
2018-06-13T05:52:03.501Z,14.50
2018-06-13T05:53:03.549Z,14.52
2018-06-13T05:54:03.600Z,14.47
2018-06-13T05:55:03.672Z,14.52
2018-06-13T05:56:03.699Z,14.53
2018-06-13T05:57:03.767Z,14.47
2018-06-13T05:58:03.792Z,14.54
2018-06-13T05:59:03.842Z,14.54
2018-06-13T06:00:03.892Z,14.56
2018-06-13T06:01:03.997Z,14.52
2018-06-13T06:02:04.015Z,14.54
2018-06-13T06:03:04.042Z,14.68
2018-06-13T06:04:04.085Z,14.54
2018-06-13T06:05:04.133Z,14.68
2018-06-13T06:06:04.210Z,14.62
2018-06-13T06:07:04.260Z,14.64
2018-06-13T06:08:04.282Z,14.69
2018-06-13T06:09:04.328Z,14.64
2018-06-13T06:10:04.376Z,14.61
2018-06-13T06:11:04.429Z,14.67
2018-06-13T06:12:04.527Z,14.64
2018-06-13T06:13:04.523Z,14.61
2018-06-13T06:14:04.571Z,14.56
2018-06-13T06:15:04.623Z,14.60
2018-06-13T06:16:04.670Z,14.61
2018-06-13T06:17:04.753Z,14.64
2018-06-13T06:18:04.770Z,14.62
2018-06-13T06:19:04.816Z,14.67
2018-06-13T06:20:04.872Z,14.69
2018-06-13T06:21:04.913Z,14.68
2018-06-13T06:22:04.992Z,14.81
2018-06-13T06:23:05.037Z,14.69
2018-06-13T06:24:05.061Z,14.81
2018-06-13T06:25:05.109Z,14.94
2018-06-13T06:26:05.157Z,14.88
2018-06-13T06:27:05.208Z,14.90
2018-06-13T06:28:05.298Z,14.90
2018-06-13T06:29:05.304Z,14.90
2018-06-13T06:30:05.352Z,14.90
2018-06-13T06:31:05.401Z,14.87
2018-06-13T06:32:05.450Z,14.81
2018-06-13T06:33:05.531Z,14.75
2018-06-13T06:34:05.552Z,14.80
2018-06-13T06:35:05.601Z,14.74
2018-06-13T06:36:05.648Z,14.80
2018-06-13T06:37:05.700Z,14.69
2018-06-13T06:38:05.776Z,14.71
2018-06-13T06:39:05.805Z,14.78
2018-06-13T06:40:05.844Z,14.84
2018-06-13T06:41:05.893Z,14.87
2018-06-13T06:42:05.969Z,14.86
2018-06-13T06:43:06.015Z,14.87
2018-06-13T06:44:06.039Z,14.88
2018-06-13T06:45:06.089Z,14.87
2018-06-13T06:46:06.136Z,14.68
2018-06-13T06:47:06.185Z,14.69
2018-06-13T06:48:06.261Z,14.80
2018-06-13T06:49:06.315Z,14.68
2018-06-13T06:50:06.332Z,14.65
2018-06-13T06:51:06.384Z,14.67
2018-06-13T06:52:06.439Z,14.78
2018-06-13T06:53:06.510Z,14.78
2018-06-13T06:54:06.533Z,14.69
2018-06-13T06:55:06.582Z,14.75
2018-06-13T06:56:06.628Z,14.71
2018-06-13T06:57:06.678Z,14.71
2018-06-13T06:58:06.765Z,14.75
2018-06-13T06:59:06.774Z,14.75
2018-06-13T07:00:06.822Z,14.71
2018-06-13T07:01:06.875Z,14.74
2018-06-13T07:02:06.923Z,14.72
2018-06-13T07:03:07.001Z,14.69
2018-06-13T07:04:07.021Z,14.71
2018-06-13T07:05:07.098Z,14.72
2018-06-13T07:06:07.113Z,14.74
2018-06-13T07:07:07.167Z,14.71
2018-06-13T07:08:07.215Z,14.75
2018-06-13T07:09:07.265Z,14.67
2018-06-13T07:10:07.346Z,14.61
2018-06-13T07:11:07.359Z,14.64
2018-06-13T07:12:07.409Z,14.65
2018-06-13T07:13:07.482Z,14.54
2018-06-13T07:14:07.506Z,14.61
2018-06-13T07:15:07.602Z,14.64
2018-06-13T07:16:07.606Z,14.56
2018-06-13T07:17:07.654Z,14.54
2018-06-13T07:18:07.702Z,14.53
2018-06-13T07:19:07.755Z,14.50
2018-06-13T07:20:07.832Z,14.47
2018-06-13T07:21:07.850Z,14.57
2018-06-13T07:22:07.899Z,14.64
2018-06-13T07:23:07.949Z,14.61
2018-06-13T07:24:07.999Z,14.56
2018-06-13T07:25:08.078Z,14.61
2018-06-13T07:26:08.094Z,14.61
2018-06-13T07:27:08.142Z,14.62
2018-06-13T07:28:08.198Z,14.64
2018-06-13T07:29:08.241Z,14.62
2018-06-13T07:30:08.314Z,14.72
2018-06-13T07:31:08.363Z,14.74
2018-06-13T07:32:08.389Z,14.74
2018-06-13T07:33:08.437Z,14.78
2018-06-13T07:34:08.485Z,14.64
2018-06-13T07:35:08.569Z,14.65
2018-06-13T07:36:08.585Z,14.62
2018-06-13T07:37:08.631Z,14.71
2018-06-13T07:38:08.684Z,14.71
2018-06-13T07:39:08.730Z,14.68
2018-06-13T07:40:08.802Z,14.72
2018-06-13T07:41:08.862Z,14.75
2018-06-13T07:42:08.875Z,14.81
2018-06-13T07:43:08.926Z,14.67
2018-06-13T07:44:08.974Z,14.57
2018-06-13T07:45:09.029Z,14.65
2018-06-13T07:46:09.111Z,14.65
2018-06-13T07:47:09.128Z,14.68
2018-06-13T07:48:09.176Z,14.69
2018-06-13T07:49:09.218Z,14.65
2018-06-13T07:50:09.269Z,14.52
2018-06-13T07:51:09.349Z,14.57
2018-06-13T07:52:09.364Z,14.56
2018-06-13T07:53:09.416Z,14.47
2018-06-13T07:54:09.464Z,14.46
2018-06-13T07:55:09.562Z,14.44
2018-06-13T07:56:09.595Z,14.42
2018-06-13T07:57:09.614Z,14.37
2018-06-13T07:58:09.657Z,14.42
2018-06-13T07:59:09.734Z,14.54
2018-06-13T08:00:09.756Z,14.56
2018-06-13T08:01:09.829Z,14.52
2018-06-13T08:02:09.902Z,14.46
2018-06-13T08:03:09.904Z,14.47
2018-06-13T08:04:09.957Z,14.50
2018-06-13T08:05:10.002Z,14.37
2018-06-13T08:06:10.049Z,14.37
2018-06-13T08:07:10.135Z,14.46
2018-06-13T08:08:10.147Z,14.42
2018-06-13T08:09:10.196Z,14.44
2018-06-13T08:10:10.245Z,14.32
2018-06-13T08:11:10.298Z,14.43
2018-06-13T08:12:10.379Z,14.38
2018-06-13T08:13:10.389Z,14.35
2018-06-13T08:14:10.447Z,14.32
2018-06-13T08:15:10.488Z,14.27
2018-06-13T08:16:10.540Z,14.17
2018-06-13T08:17:10.609Z,14.19
2018-06-13T08:18:10.657Z,14.29
2018-06-13T08:19:10.683Z,14.39
2018-06-13T08:20:10.737Z,14.34
2018-06-13T08:21:10.783Z,14.29
2018-06-13T08:22:10.876Z,14.31
2018-06-13T08:23:10.881Z,14.31
2018-06-13T08:24:10.931Z,14.31
2018-06-13T08:25:10.976Z,14.38
2018-06-13T08:26:11.079Z,14.39
2018-06-13T08:27:11.097Z,14.35
2018-06-13T08:28:11.128Z,14.34
2018-06-13T08:29:11.195Z,14.34
2018-06-13T08:30:11.218Z,14.29
2018-06-13T08:31:11.267Z,14.32
2018-06-13T08:32:11.318Z,14.37
2018-06-13T08:33:11.391Z,14.38
2018-06-13T08:34:11.415Z,14.42
2018-06-13T08:35:11.466Z,14.44
2018-06-13T08:36:11.514Z,14.38
2018-06-13T08:37:11.562Z,14.44
2018-06-13T08:38:11.638Z,14.44
2018-06-13T08:39:11.684Z,14.37
2018-06-13T08:40:11.718Z,14.43
2018-06-13T08:41:11.758Z,14.38
2018-06-13T08:42:11.804Z,14.34
2018-06-13T08:43:11.853Z,14.38
2018-06-13T08:44:11.931Z,14.39
2018-06-13T08:45:11.954Z,14.38
2018-06-13T08:46:12.008Z,14.37
2018-06-13T08:47:12.050Z,14.38
2018-06-13T08:48:12.097Z,14.53
2018-06-13T08:49:12.185Z,14.54
2018-06-13T08:50:12.199Z,14.44
2018-06-13T08:51:12.243Z,14.54
2018-06-13T08:52:12.293Z,14.57
2018-06-13T08:53:12.341Z,14.56
2018-06-13T08:54:12.469Z,14.54
2018-06-13T08:55:12.472Z,14.65
2018-06-13T08:56:12.487Z,14.56
2018-06-13T08:57:12.539Z,14.56
2018-06-13T08:58:12.584Z,14.61
2018-06-13T08:59:12.633Z,14.53
2018-06-13T09:00:12.712Z,14.57
2018-06-13T09:01:12.731Z,14.56
2018-06-13T09:02:12.783Z,14.50
2018-06-13T09:03:12.867Z,14.46
2018-06-13T09:04:12.885Z,14.54
2018-06-13T09:05:12.969Z,14.52
2018-06-13T09:06:12.975Z,14.52
2018-06-13T09:07:13.027Z,14.56
2018-06-13T09:08:13.073Z,14.56
2018-06-13T09:09:13.124Z,14.57
2018-06-13T09:10:13.206Z,14.54
2018-06-13T09:11:13.221Z,14.52
2018-06-13T09:12:13.269Z,14.46
2018-06-13T09:13:13.319Z,14.38
2018-06-13T09:14:13.367Z,14.34
2018-06-13T09:15:13.440Z,14.42
2018-06-13T09:16:13.488Z,14.42
2018-06-13T09:17:13.514Z,14.44
2018-06-13T09:18:13.564Z,14.53
2018-06-13T09:19:13.614Z,14.42
2018-06-13T09:20:13.701Z,14.50
2018-06-13T09:21:13.709Z,14.52
2018-06-13T09:22:13.758Z,14.53
2018-06-13T09:23:13.807Z,14.67
2018-06-13T09:24:13.858Z,14.56
2018-06-13T09:25:13.930Z,14.57
2018-06-13T09:26:13.979Z,14.57
2018-06-13T09:27:14.008Z,14.67
2018-06-13T09:28:14.052Z,14.56
2018-06-13T09:29:14.100Z,14.56
2018-06-13T09:30:14.148Z,14.56
2018-06-13T09:31:14.241Z,14.62
2018-06-13T09:32:14.247Z,14.62
2018-06-13T09:33:14.298Z,14.65
2018-06-13T09:34:14.345Z,14.69
2018-06-13T09:35:14.394Z,14.71
2018-06-13T09:36:14.480Z,14.71
2018-06-13T09:37:14.492Z,14.75
2018-06-13T09:38:14.540Z,14.61
2018-06-13T09:39:14.590Z,14.65
2018-06-13T09:40:14.639Z,14.68
2018-06-13T09:41:14.715Z,14.64
2018-06-13T09:42:14.759Z,14.64
2018-06-13T09:43:14.790Z,14.78
2018-06-13T09:44:14.845Z,14.78
2018-06-13T09:45:14.887Z,14.61
2018-06-13T09:46:14.941Z,14.65
2018-06-13T09:47:23.181Z,14.60
2018-06-13T09:48:15.039Z,14.62
2018-06-13T09:49:15.080Z,14.69
2018-06-13T09:50:15.129Z,14.71
2018-06-13T09:51:15.181Z,14.67
2018-06-13T09:52:15.254Z,14.64
2018-06-13T09:53:15.303Z,14.60
2018-06-13T09:54:15.324Z,14.61
2018-06-13T09:55:15.372Z,14.65
2018-06-13T09:56:15.423Z,14.64
2018-06-13T09:57:15.473Z,14.64
2018-06-13T09:58:15.546Z,14.71
2018-06-13T09:59:15.568Z,14.69
2018-06-13T10:00:15.619Z,14.60
2018-06-13T10:01:15.672Z,14.60
2018-06-13T10:02:15.750Z,14.65
2018-06-13T10:03:15.790Z,14.61
2018-06-13T10:04:15.816Z,14.62
2018-06-13T10:05:15.867Z,14.52
2018-06-13T10:06:15.917Z,14.46
2018-06-13T10:07:15.961Z,14.50
2018-06-13T10:08:16.038Z,14.46
2018-06-13T10:09:16.110Z,14.46
2018-06-13T10:10:16.106Z,14.35
2018-06-13T10:11:16.199Z,14.43
2018-06-13T10:12:16.227Z,14.32
2018-06-13T10:13:16.256Z,14.37
2018-06-13T10:14:16.325Z,14.39
2018-06-13T10:15:16.351Z,14.42
2018-06-13T10:16:16.400Z,14.37
2018-06-13T10:17:16.453Z,14.42
2018-06-13T10:18:16.509Z,14.42
2018-06-13T10:19:16.573Z,14.38
2018-06-13T10:20:16.609Z,14.35
2018-06-13T10:21:16.648Z,14.44
2018-06-13T10:22:16.734Z,14.54
2018-06-13T10:23:16.743Z,14.54
2018-06-13T10:24:16.820Z,14.57
2018-06-13T10:25:16.844Z,14.64
2018-06-13T10:26:16.892Z,14.67
2018-06-13T10:27:16.943Z,14.67
2018-06-13T10:28:16.991Z,14.67
2018-06-13T10:29:17.073Z,14.81
2018-06-13T10:30:17.111Z,14.69
2018-06-13T10:31:17.136Z,14.67
2018-06-13T10:32:17.184Z,14.56
2018-06-13T10:33:17.236Z,14.53
2018-06-13T10:34:17.313Z,14.46
2018-06-13T10:35:17.353Z,14.37
2018-06-13T10:36:17.382Z,14.38
2018-06-13T10:37:17.437Z,14.35
2018-06-13T10:38:17.475Z,14.38
2018-06-13T10:39:17.525Z,14.37
2018-06-13T10:40:17.600Z,14.38
2018-06-13T10:41:17.626Z,14.42
2018-06-13T10:42:17.680Z,14.52
2018-06-13T10:43:17.721Z,14.52
2018-06-13T10:44:17.769Z,14.57
2018-06-13T10:45:17.851Z,14.57
2018-06-13T10:46:17.869Z,14.56
2018-06-13T10:47:17.917Z,14.50
2018-06-13T10:48:17.970Z,14.52
2018-06-13T10:49:18.015Z,14.44
2018-06-13T10:50:18.086Z,14.52
2018-06-13T10:51:18.113Z,14.43
2018-06-13T10:52:18.161Z,14.44
2018-06-13T10:53:18.211Z,14.52
2018-06-13T10:54:18.262Z,14.47
2018-06-13T10:55:18.335Z,14.62
2018-06-13T10:56:18.380Z,14.69
2018-06-13T10:57:18.415Z,14.75
2018-06-13T10:58:18.455Z,14.69
2018-06-13T10:59:18.503Z,14.75
2018-06-13T11:00:18.553Z,14.74
2018-06-13T11:01:18.635Z,14.88
2018-06-13T11:02:18.675Z,14.86
2018-06-13T11:03:18.700Z,14.98
2018-06-13T11:04:18.751Z,14.93
2018-06-13T11:05:18.802Z,14.98
2018-06-13T11:06:18.884Z,14.88
2018-06-13T11:07:18.897Z,14.98
2018-06-13T11:08:18.949Z,14.99
2018-06-13T11:09:18.993Z,14.95
2018-06-13T11:10:19.044Z,14.94
2018-06-13T11:11:19.124Z,14.95
2018-06-13T11:12:19.143Z,15.01
2018-06-13T11:13:19.194Z,15.02
2018-06-13T11:14:19.247Z,14.99
2018-06-13T11:15:19.293Z,14.99
2018-06-13T11:16:19.365Z,14.99
2018-06-13T11:17:19.413Z,14.95
2018-06-13T11:18:19.436Z,15.11
2018-06-13T11:19:19.485Z,15.12
2018-06-13T11:20:19.576Z,15.13
2018-06-13T11:21:19.586Z,14.94
2018-06-13T11:22:19.655Z,15.02
2018-06-13T11:23:19.685Z,14.95
2018-06-13T11:24:19.740Z,14.95
2018-06-13T11:25:19.784Z,14.71
2018-06-13T11:26:19.834Z,14.69
2018-06-13T11:27:19.902Z,14.74
2018-06-13T11:28:19.927Z,14.60
2018-06-13T11:29:19.977Z,14.61
2018-06-13T11:30:20.033Z,14.62
2018-06-13T11:31:20.076Z,14.62
2018-06-13T11:32:20.148Z,14.64
2018-06-13T11:33:20.175Z,14.61
2018-06-13T11:34:20.225Z,14.75
2018-06-13T11:35:20.270Z,14.67
2018-06-13T11:36:20.328Z,14.69
2018-06-13T11:37:20.395Z,14.78
2018-06-13T11:38:20.444Z,14.72
2018-06-13T11:39:20.474Z,14.83
2018-06-13T11:40:20.517Z,14.81
2018-06-13T11:41:20.607Z,14.72
2018-06-13T11:42:20.616Z,14.71
2018-06-13T11:43:20.696Z,14.69
2018-06-13T11:44:20.712Z,14.81
2018-06-13T11:45:20.762Z,14.81
2018-06-13T11:46:20.811Z,14.90
2018-06-13T11:47:20.860Z,14.94
2018-06-13T11:48:20.948Z,14.93
2018-06-13T11:49:20.971Z,14.95
2018-06-13T11:50:21.008Z,15.02
2018-06-13T11:51:21.056Z,14.95
2018-06-13T11:52:21.110Z,14.93
2018-06-13T11:53:21.187Z,15.03
2018-06-13T11:54:21.207Z,15.08
2018-06-13T11:55:21.259Z,15.23
2018-06-13T11:56:21.304Z,15.15
2018-06-13T11:57:21.352Z,15.20
2018-06-13T11:58:21.439Z,15.21
2018-06-13T11:59:21.452Z,15.21
2018-06-13T12:00:21.524Z,15.19
2018-06-13T12:01:21.560Z,15.28
2018-06-13T12:02:21.599Z,15.36
2018-06-13T12:03:21.669Z,15.35
2018-06-13T12:04:21.737Z,15.36
2018-06-13T12:05:21.748Z,15.35
2018-06-13T12:06:21.795Z,15.43
2018-06-13T12:07:21.844Z,15.38
2018-06-13T12:08:21.897Z,15.45
2018-06-13T12:09:21.976Z,15.36
2018-06-13T12:10:21.994Z,15.36
2018-06-13T12:11:22.045Z,15.41
2018-06-13T12:12:22.103Z,15.54
2018-06-13T12:13:22.141Z,15.56
2018-06-13T12:14:22.227Z,15.57
2018-06-13T12:15:22.240Z,15.61
2018-06-13T12:16:22.290Z,15.66
2018-06-13T12:17:22.347Z,15.57
2018-06-13T12:18:22.390Z,15.60
2018-06-13T12:19:22.468Z,15.52
2018-06-13T12:20:22.486Z,15.52
2018-06-13T12:21:22.536Z,15.57
2018-06-13T12:22:22.585Z,15.54
2018-06-13T12:23:22.632Z,15.49
2018-06-13T12:24:22.716Z,15.33
2018-06-13T12:25:22.736Z,15.41
2018-06-13T12:26:22.781Z,15.41
2018-06-13T12:27:22.836Z,15.19
2018-06-13T12:28:22.880Z,15.26
2018-06-13T12:29:22.956Z,15.26
2018-06-13T12:30:23.008Z,15.27
2018-06-13T12:31:23.032Z,15.31
2018-06-13T12:32:23.079Z,15.35
2018-06-13T12:33:23.129Z,15.39
2018-06-13T12:34:23.202Z,15.36
2018-06-13T12:35:23.272Z,15.33
2018-06-13T12:36:23.280Z,15.38
2018-06-13T12:37:23.326Z,15.36
2018-06-13T12:38:23.375Z,15.20
2018-06-13T12:39:23.424Z,15.26
2018-06-13T12:40:23.507Z,15.12
2018-06-13T12:41:23.523Z,15.11
2018-06-13T12:42:23.577Z,15.23
2018-06-13T12:43:23.622Z,15.17
2018-06-13T12:44:23.675Z,15.24
2018-06-13T12:45:23.810Z,15.20
2018-06-13T12:46:23.773Z,15.27
2018-06-13T12:47:23.828Z,15.26
2018-06-13T12:48:23.870Z,15.30
2018-06-13T12:49:23.920Z,15.36
2018-06-13T12:50:24.015Z,15.41
2018-06-13T12:51:24.016Z,15.48
2018-06-13T12:52:24.068Z,15.56
2018-06-13T12:53:24.116Z,15.51